Time;durP1;ratioP1;P1;durP2;ratioP2;P2;SDS_P1;SDS_P2;PMS_P1;PMS_P2;Temp;Humidity;BMP_temperature;BMP_pressure;BME280_temperature;BME280_humidity;BME280_pressure;Samples;Min_cycle;Max_cycle;Signal;HPM_P1;HPM_P2
2022/01/02 00:02:28;;;;;;;;;;;10.40;99.90;;;;;;4882964;29;20013;-85
2022/01/02 00:05:21;;;;;;;;;;;10.20;99.90;;;;;;4882728;29;19934;-91
2022/01/02 00:10:56;;;;;;;;;;;10.30;99.90;;;;;;4878104;29;19923;-87
2022/01/02 00:16:47;;;;;;;;;;;8.10;99.90;;;;;;4895628;29;19927;-89
2022/01/02 00:19:30;;;;;;;;;;;10.30;99.90;;;;;;4883590;29;19919;-91
2022/01/02 00:22:26;;;;;;;;;;;9.50;99.90;;;;;;4882119;29;19924;-93
2022/01/02 00:24:52;;;;;;;;;;;10.20;99.90;;;;;;4880523;29;20007;-86
2022/01/02 00:27:18;;;;;;;;;;;10.20;99.90;;;;;;4881337;29;19923;-82
2022/01/02 00:39:57;;;;;;;;;;;9.10;99.90;;;;;;4842433;29;19923;-85
2022/01/02 00:42:42;;;;;;;;;;;10.50;99.90;;;;;;4876817;29;19923;-87
2022/01/02 00:48:55;;;;;;;;;;;10.10;99.90;;;;;;4893318;29;20451;-84
2022/01/02 00:51:47;;;;;;;;;;;10.80;99.90;;;;;;4878880;29;19927;-88
2022/01/02 00:54:28;;;;;;;;;;;10.10;99.90;;;;;;4879154;29;19923;-84
2022/01/02 00:56:56;;;;;;;;;;;10.30;99.90;;;;;;4879598;29;20010;-83
2022/01/02 00:59:22;;;;;;;;;;;10.70;99.90;;;;;;4876516;29;19923;-86
2022/01/02 01:07:11;;;;;;;;;;;10.00;99.90;;;;;;5345050;23;20280;-77
2022/01/02 01:09:37;;;;;;;;;;;10.10;99.90;;;;;;4850081;29;20805;-77
2022/01/02 01:12:03;;;;;;;;;;;10.00;99.90;;;;;;4853502;29;20007;-77
2022/01/02 01:14:32;;;;;;;;;;;9.90;99.90;;;;;;4853795;29;19950;-78
2022/01/02 01:17:01;;;;;;;;;;;10.00;99.90;;;;;;4925330;23;19927;-79
2022/01/02 02:14:36;;;;;;;;;;;10.30;99.90;;;;;;5463659;23;19923;-78
2022/01/02 02:17:02;;;;;;;;;;;10.30;99.90;;;;;;4911083;29;19929;-81
2022/01/02 02:19:27;;;;;;;;;;;10.40;99.90;;;;;;4881036;29;19924;-81
2022/01/02 02:21:53;;;;;;;;;;;10.40;99.90;;;;;;4880799;29;20017;-81
2022/01/02 02:24:18;;;;;;;;;;;10.40;99.90;;;;;;4899551;29;19930;-82
2022/01/02 02:26:44;;;;;;;;;;;10.60;99.90;;;;;;4888689;29;19945;-82
2022/01/02 02:29:10;;;;;;;;;;;10.40;99.90;;;;;;4896931;29;20368;-82
2022/01/02 02:31:38;;;;;;;;;;;10.40;99.90;;;;;;4896173;29;20379;-82
2022/01/02 02:54:47;;;;;;;;;;;10.20;99.90;;;;;;5095249;23;19923;-79
2022/01/02 02:57:14;;;;;;;;;;;10.10;99.90;;;;;;4867277;29;19924;-79
2022/01/02 02:59:42;;;;;;;;;;;10.10;99.90;;;;;;4867684;29;19924;-79
2022/01/02 03:02:08;;;;;;;;;;;10.00;99.90;;;;;;4868215;29;19995;-80
2022/01/02 03:04:33;;;;;;;;;;;10.00;99.90;;;;;;4872293;29;19934;-85
2022/01/02 03:06:59;;;;;;;;;;;10.00;99.90;;;;;;4871146;29;19947;-84
2022/01/02 03:09:37;;;;;;;;;;;9.90;99.90;;;;;;4869941;29;20370;-86
2022/01/02 03:12:04;;;;;;;;;;;9.90;99.90;;;;;;4866859;29;19972;-79
2022/01/02 03:17:06;;;;;;;;;;;9.90;99.90;;;;;;2914464;23;20369;-79
2022/01/02 03:21:59;;;;;;;;;;;9.90;99.90;;;;;;4879489;29;19924;-79
2022/01/02 03:24:25;;;;;;;;;;;9.90;99.90;;;;;;4879927;29;20277;-80
2022/01/02 03:26:51;;;;;;;;;;;9.90;99.90;;;;;;4880440;29;19945;-79
2022/01/02 03:29:16;;;;;;;;;;;10.00;99.90;;;;;;4879607;29;20393;-79
2022/01/02 03:36:52;;;;;;;;;;;9.90;99.90;;;;;;5670099;23;19927;-79
2022/01/02 03:39:18;;;;;;;;;;;9.90;99.90;;;;;;4869372;29;20292;-80
2022/01/02 03:41:50;;;;;;;;;;;9.90;99.90;;;;;;4870759;29;20344;-79
2022/01/02 03:44:15;;;;;;;;;;;10.00;99.90;;;;;;4853242;29;19924;-78
2022/01/02 03:46:41;;;;;;;;;;;9.90;99.90;;;;;;4871488;29;19939;-77
2022/01/02 03:49:06;;;;;;;;;;;9.90;99.90;;;;;;4872110;29;19927;-78
2022/01/02 03:51:32;;;;;;;;;;;9.90;99.90;;;;;;4871129;29;19927;-78
2022/01/02 03:53:57;;;;;;;;;;;10.00;99.90;;;;;;4854239;29;20396;-78
2022/01/02 03:56:23;;;;;;;;;;;9.90;99.90;;;;;;4871579;29;19924;-78
2022/01/02 03:58:48;;;;;;;;;;;9.90;99.90;;;;;;4856972;29;19930;-79
2022/01/02 04:01:14;;;;;;;;;;;9.90;99.90;;;;;;4872543;29;19939;-80
2022/01/02 04:03:39;;;;;;;;;;;9.90;99.90;;;;;;4869468;29;19980;-79
2022/01/02 04:06:05;;;;;;;;;;;9.90;99.90;;;;;;4870299;29;19955;-79
2022/01/02 04:08:30;;;;;;;;;;;9.90;99.90;;;;;;4871968;29;19928;-79
2022/01/02 04:10:56;;;;;;;;;;;9.90;99.90;;;;;;4869034;29;19972;-80
2022/01/02 04:13:21;;;;;;;;;;;10.00;99.90;;;;;;4872276;29;19977;-80
2022/01/02 04:15:47;;;;;;;;;;;10.00;99.90;;;;;;4873726;29;20341;-80
2022/01/02 04:18:13;;;;;;;;;;;10.00;99.90;;;;;;4868084;29;20392;-78
2022/01/02 04:20:38;;;;;;;;;;;9.90;99.90;;;;;;4870676;29;19924;-79
2022/01/02 04:23:04;;;;;;;;;;;9.90;99.90;;;;;;4871305;29;19970;-80
2022/01/02 04:28:05;;;;;;;;;;;9.90;99.90;;;;;;5667495;23;19932;-80
2022/01/02 04:30:30;;;;;;;;;;;10.00;99.90;;;;;;4868014;29;20311;-81
2022/01/02 04:32:56;;;;;;;;;;;9.90;99.90;;;;;;4869686;29;20395;-82
2022/01/02 04:35:21;;;;;;;;;;;10.20;99.90;;;;;;4870719;29;20292;-81
2022/01/02 04:37:47;;;;;;;;;;;10.70;99.90;;;;;;4867647;29;19932;-80
2022/01/02 04:40:13;;;;;;;;;;;9.80;99.90;;;;;;4871239;29;19923;-80
2022/01/02 04:42:41;;;;;;;;;;;9.90;99.90;;;;;;4868625;29;19951;-80
2022/01/02 04:51:17;;;;;;;;;;;8.30;99.90;;;;;;4895434;29;19918;-78
2022/01/02 04:53:47;;;;;;;;;;;9.80;99.90;;;;;;4897191;29;19927;-79
2022/01/02 04:56:13;;;;;;;;;;;9.80;99.90;;;;;;4897552;29;19926;-80
2022/01/02 04:58:43;;;;;;;;;;;9.80;99.90;;;;;;4896492;29;19923;-80
2022/01/02 05:14:05;;;;;;;;;;;9.90;99.90;;;;;;5845497;23;19923;-79
2022/01/02 05:16:31;;;;;;;;;;;10.00;99.90;;;;;;4896877;29;19931;-79
2022/01/02 05:18:57;;;;;;;;;;;10.00;99.90;;;;;;4896952;29;19973;-79
2022/01/02 05:21:23;;;;;;;;;;;10.00;99.90;;;;;;4894941;29;20307;-78
2022/01/02 05:23:48;;;;;;;;;;;10.00;99.90;;;;;;4896590;29;19952;-77
2022/01/02 05:26:14;;;;;;;;;;;10.00;99.90;;;;;;4911759;29;19923;-77
2022/01/02 05:28:39;;;;;;;;;;;10.10;99.90;;;;;;4896178;29;19966;-77
2022/01/02 05:31:11;;;;;;;;;;;10.70;99.90;;;;;;4889634;23;19924;-78
2022/01/02 05:33:37;;;;;;;;;;;10.10;99.90;;;;;;4855455;29;19931;-78
2022/01/02 05:36:02;;;;;;;;;;;10.00;99.90;;;;;;4852205;29;19920;-78
2022/01/02 05:38:28;;;;;;;;;;;10.10;99.90;;;;;;4854234;29;20011;-76
2022/01/02 05:40:55;;;;;;;;;;;10.20;99.90;;;;;;4852361;29;20425;-76
2022/01/02 05:48:32;;;;;;;;;;;10.10;99.90;;;;;;4990464;23;19930;-78
2022/01/02 05:50:59;;;;;;;;;;;10.20;99.90;;;;;;4896444;29;19967;-77
2022/01/02 05:53:25;;;;;;;;;;;10.20;99.90;;;;;;4896615;29;19920;-80
2022/01/02 05:55:51;;;;;;;;;;;10.20;99.90;;;;;;4895931;29;19923;-81
2022/01/02 05:58:17;;;;;;;;;;;10.20;99.90;;;;;;4896521;29;19923;-80
2022/01/02 06:00:42;;;;;;;;;;;10.30;99.90;;;;;;4896733;29;19931;-80
2022/01/02 06:03:08;;;;;;;;;;;10.30;99.90;;;;;;4896234;29;19923;-80
2022/01/02 06:05:33;;;;;;;;;;;10.30;99.90;;;;;;4895969;29;20332;-80
2022/01/02 06:07:59;;;;;;;;;;;10.20;99.90;;;;;;4896347;29;19927;-80
2022/01/02 06:10:24;;;;;;;;;;;10.30;99.90;;;;;;4895659;29;19923;-80
2022/01/02 06:12:50;;;;;;;;;;;10.40;99.90;;;;;;4894732;29;20299;-79
2022/01/02 06:15:15;;;;;;;;;;;10.40;99.90;;;;;;4895407;29;19969;-79
2022/01/02 06:17:41;;;;;;;;;;;10.30;99.90;;;;;;4895566;29;19930;-80
2022/01/02 06:20:06;;;;;;;;;;;10.20;99.90;;;;;;4895440;29;19929;-79
2022/01/02 06:25:00;;;;;;;;;;;10.20;99.90;;;;;;4874130;29;19980;-79
2022/01/02 06:27:26;;;;;;;;;;;10.20;99.90;;;;;;4875277;29;19928;-80
2022/01/02 06:29:51;;;;;;;;;;;10.10;99.90;;;;;;4874956;29;20008;-80
2022/01/02 06:32:20;;;;;;;;;;;10.20;99.90;;;;;;4874585;29;19924;-80
2022/01/02 06:34:48;;;;;;;;;;;10.20;99.90;;;;;;4874399;29;19975;-81
2022/01/02 06:37:14;;;;;;;;;;;10.30;99.90;;;;;;4876573;29;20299;-80
2022/01/02 06:39:43;;;;;;;;;;;10.20;99.90;;;;;;4877905;29;20014;-79
2022/01/02 06:42:11;;;;;;;;;;;10.30;99.90;;;;;;4878112;29;19959;-79
2022/01/02 06:44:37;;;;;;;;;;;10.40;99.90;;;;;;4884818;29;20431;-77
2022/01/02 06:47:05;;;;;;;;;;;10.40;99.90;;;;;;4882790;29;19927;-76
2022/01/02 06:49:34;;;;;;;;;;;10.30;99.90;;;;;;4888731;29;19923;-78
2022/01/02 06:51:59;;;;;;;;;;;10.40;99.90;;;;;;4881942;29;19995;-81
2022/01/02 06:54:25;;;;;;;;;;;10.30;99.90;;;;;;4876219;29;19927;-77
2022/01/02 06:56:50;;;;;;;;;;;10.40;99.90;;;;;;4876389;29;19924;-79
2022/01/02 06:59:17;;;;;;;;;;;10.40;99.90;;;;;;4877243;29;20387;-78
2022/01/02 07:01:42;;;;;;;;;;;10.30;99.90;;;;;;4876708;29;19931;-77
2022/01/02 07:04:08;;;;;;;;;;;10.30;99.90;;;;;;4877101;29;20292;-77
2022/01/02 07:06:34;;;;;;;;;;;10.30;99.90;;;;;;4878003;29;19920;-77
2022/01/02 07:08:59;;;;;;;;;;;10.30;99.90;;;;;;4879044;29;20387;-82
2022/01/02 07:11:25;;;;;;;;;;;10.40;99.90;;;;;;4879013;29;19924;-81
2022/01/02 07:13:50;;;;;;;;;;;11.50;99.90;;;;;;4877985;29;20405;-81
2022/01/02 07:16:16;;;;;;;;;;;10.80;99.90;;;;;;4878451;29;19930;-81
2022/01/02 07:18:41;;;;;;;;;;;10.40;99.90;;;;;;4878209;29;19920;-80
2022/01/02 07:21:10;;;;;;;;;;;10.40;99.90;;;;;;4876187;29;20376;-80
2022/01/02 07:23:35;;;;;;;;;;;10.50;99.90;;;;;;4876134;29;19927;-79
2022/01/02 07:26:04;;;;;;;;;;;10.40;99.90;;;;;;4877134;29;19947;-79
2022/01/02 07:28:33;;;;;;;;;;;10.70;99.90;;;;;;4876611;29;19946;-80
2022/01/02 07:30:59;;;;;;;;;;;10.40;99.90;;;;;;4876669;29;20439;-83
2022/01/02 07:33:24;;;;;;;;;;;10.40;99.90;;;;;;4875552;29;20014;-80
2022/01/02 07:35:50;;;;;;;;;;;10.40;99.90;;;;;;4878590;29;19995;-80
2022/01/02 07:38:15;;;;;;;;;;;10.30;99.90;;;;;;4876914;29;19950;-80
2022/01/02 07:40:41;;;;;;;;;;;10.30;99.90;;;;;;4875867;29;19930;-81
2022/01/02 07:43:06;;;;;;;;;;;10.30;99.90;;;;;;4872479;29;19983;-80
2022/01/02 07:45:32;;;;;;;;;;;10.30;99.90;;;;;;4876712;29;19923;-79
2022/01/02 07:47:57;;;;;;;;;;;10.20;99.90;;;;;;4877677;29;20269;-78
2022/01/02 07:50:23;;;;;;;;;;;10.20;99.90;;;;;;4880159;29;19973;-78
2022/01/02 07:52:54;;;;;;;;;;;10.10;99.90;;;;;;4879709;29;19959;-80
2022/01/02 07:55:23;;;;;;;;;;;10.20;99.90;;;;;;4879444;29;19972;-79
2022/01/02 07:57:55;;;;;;;;;;;10.10;99.90;;;;;;4880087;29;19927;-79
2022/01/02 08:00:24;;;;;;;;;;;10.10;99.90;;;;;;4879937;29;19924;-79
2022/01/02 08:02:49;;;;;;;;;;;10.10;99.90;;;;;;4879157;29;20360;-79
2022/01/02 08:05:15;;;;;;;;;;;10.10;99.90;;;;;;4892645;23;19931;-79
2022/01/02 08:07:41;;;;;;;;;;;10.10;99.90;;;;;;4853586;29;19924;-75
2022/01/02 08:10:06;;;;;;;;;;;10.10;99.90;;;;;;4856122;29;20744;-75
2022/01/02 08:12:35;;;;;;;;;;;10.20;99.90;;;;;;4855574;29;19966;-74
2022/01/02 08:15:00;;;;;;;;;;;10.30;99.90;;;;;;4854458;29;19923;-77
2022/01/02 08:17:27;;;;;;;;;;;10.30;99.90;;;;;;4854204;29;19924;-77
2022/01/02 08:22:28;;;;;;;;;;;10.30;99.90;;;;;;5544474;23;20353;-77
2022/01/02 08:24:54;;;;;;;;;;;10.30;99.90;;;;;;4871897;29;20303;-77
2022/01/02 08:27:19;;;;;;;;;;;10.30;99.90;;;;;;4870392;29;19919;-76
2022/01/02 08:29:45;;;;;;;;;;;10.50;99.90;;;;;;4868675;29;20399;-78
2022/01/02 08:32:10;;;;;;;;;;;10.40;99.90;;;;;;4871652;29;19924;-77
2022/01/02 09:03:31;;;;;;;;;;;10.70;99.90;;;;;;5368840;23;19924;-77
2022/01/02 09:05:59;;;;;;;;;;;10.90;99.90;;;;;;4870385;29;20427;-76
2022/01/02 09:08:26;;;;;;;;;;;11.00;99.90;;;;;;4869161;29;20006;-76
2022/01/02 09:10:52;;;;;;;;;;;10.80;99.90;;;;;;4867821;29;20611;-77
2022/01/02 09:13:17;;;;;;;;;;;10.80;99.90;;;;;;4868696;29;19972;-78
2022/01/02 09:15:43;;;;;;;;;;;10.70;99.90;;;;;;4869905;29;19936;-78
2022/01/02 09:18:08;;;;;;;;;;;10.80;99.90;;;;;;4852311;29;19930;-78
2022/01/02 09:20:34;;;;;;;;;;;10.70;99.90;;;;;;4867260;29;19931;-76
2022/01/02 09:22:59;;;;;;;;;;;10.70;99.90;;;;;;4870434;29;20426;-77
2022/01/02 09:25:25;;;;;;;;;;;11.00;99.90;;;;;;4863105;29;19927;-77
2022/01/02 09:27:51;;;;;;;;;;;10.80;99.90;;;;;;4869580;29;19923;-78
2022/01/02 09:30:20;;;;;;;;;;;11.50;99.90;;;;;;4867714;29;20365;-80
2022/01/02 09:32:45;;;;;;;;;;;10.90;99.90;;;;;;4865674;29;20411;-80
2022/01/02 09:35:11;;;;;;;;;;;11.20;99.90;;;;;;4868362;29;19975;-81
2022/01/02 09:37:40;;;;;;;;;;;10.80;99.90;;;;;;4868185;29;20373;-81
2022/01/02 09:42:41;;;;;;;;;;;10.80;99.90;;;;;;5145469;23;20349;-77
2022/01/02 09:45:07;;;;;;;;;;;10.70;99.90;;;;;;4854150;29;19927;-81
2022/01/02 09:47:33;;;;;;;;;;;10.80;99.90;;;;;;4868739;29;19924;-78
2022/01/02 09:50:05;;;;;;;;;;;11.50;99.90;;;;;;4867790;29;20391;-78
2022/01/02 09:52:34;;;;;;;;;;;10.70;99.90;;;;;;4868931;29;19923;-83
2022/01/02 09:55:00;;;;;;;;;;;10.70;99.90;;;;;;4867429;29;19956;-80
2022/01/02 09:57:25;;;;;;;;;;;10.60;99.90;;;;;;4867728;29;20722;-80
2022/01/02 10:17:15;;;;;;;;;;;10.30;99.90;;;;;;4869030;29;19939;-80
2022/01/02 10:28:32;;;;;;;;;;;11.10;99.90;;;;;;4875720;29;19923;-87
2022/01/02 10:31:01;;;;;;;;;;;10.90;99.90;;;;;;4862087;29;20433;-86
2022/01/02 10:33:27;;;;;;;;;;;10.90;99.90;;;;;;4861075;29;20298;-92
2022/01/02 10:35:57;;;;;;;;;;;10.90;99.90;;;;;;4862443;29;19971;-85
2022/01/02 10:57:03;;;;;;;;;;;13.50;99.90;;;;;;4874639;29;19918;-92
2022/01/02 11:03:03;;;;;;;;;;;14.00;99.90;;;;;;4878054;29;20271;-84
2022/01/02 11:08:41;;;;;;;;;;;12.50;99.90;;;;;;4981152;23;19924;-88
2022/01/02 11:11:32;;;;;;;;;;;12.30;99.90;;;;;;4867268;29;20007;-87
2022/01/02 11:23:32;;;;;;;;;;;13.50;99.90;;;;;;5301199;23;20404;-82
2022/01/02 11:26:07;;;;;;;;;;;12.90;99.90;;;;;;4888572;29;20351;-78
2022/01/02 11:28:35;;;;;;;;;;;12.50;99.90;;;;;;4893002;29;20014;-83
2022/01/02 11:31:01;;;;;;;;;;;12.60;99.90;;;;;;4890017;29;19924;-80
2022/01/02 11:33:37;;;;;;;;;;;12.10;99.90;;;;;;4893606;29;19955;-80
2022/01/02 11:36:22;;;;;;;;;;;11.90;99.90;;;;;;4889416;29;19930;-82
2022/01/02 11:38:59;;;;;;;;;;;11.80;99.90;;;;;;4886831;29;19982;-80
2022/01/02 11:41:40;;;;;;;;;;;11.70;99.90;;;;;;4892002;29;20030;-84
2022/01/02 11:44:10;;;;;;;;;;;11.60;99.90;;;;;;4884584;29;20018;-81
2022/01/02 11:46:40;;;;;;;;;;;11.70;99.90;;;;;;4881946;29;19924;-86
2022/01/02 11:49:13;;;;;;;;;;;11.70;99.90;;;;;;4884581;29;19931;-85
2022/01/02 11:51:48;;;;;;;;;;;11.80;99.90;;;;;;4887460;29;20442;-84
2022/01/02 11:54:32;;;;;;;;;;;11.80;99.90;;;;;;5020167;23;20427;-83
2022/01/02 11:56:57;;;;;;;;;;;11.90;99.90;;;;;;4870547;29;19923;-84
2022/01/02 11:59:38;;;;;;;;;;;12.10;99.90;;;;;;4866698;29;19926;-85
2022/01/02 12:19:11;;;;;;;;;;;14.00;99.90;;;;;;4860598;29;20036;-86
2022/01/02 12:37:31;;;;;;;;;;;10.70;99.90;;;;;;4897280;29;19940;-89
2022/01/02 14:37:35;;;;;;;;;;;9.80;99.90;;;;;;5554200;23;19975;-85
2022/01/02 14:40:01;;;;;;;;;;;9.80;99.90;;;;;;4867912;29;19924;-86
2022/01/02 14:42:27;;;;;;;;;;;9.70;99.90;;;;;;4867712;29;21135;-86
2022/01/02 14:44:53;;;;;;;;;;;9.70;99.90;;;;;;4875262;29;19945;-86
2022/01/02 14:47:19;;;;;;;;;;;9.60;99.90;;;;;;4880223;29;19987;-86
2022/01/02 14:49:45;;;;;;;;;;;9.60;99.90;;;;;;4867625;29;19963;-85
2022/01/02 14:52:10;;;;;;;;;;;9.60;99.90;;;;;;4880382;29;19924;-85
2022/01/02 14:54:36;;;;;;;;;;;9.50;99.90;;;;;;4881321;29;20217;-87
2022/01/02 14:57:02;;;;;;;;;;;9.40;99.90;;;;;;4879249;29;19979;-86
2022/01/02 14:59:29;;;;;;;;;;;9.40;99.90;;;;;;4868956;29;20280;-85
2022/01/02 15:01:54;;;;;;;;;;;9.30;99.90;;;;;;4866293;29;19939;-85
2022/01/02 15:04:20;;;;;;;;;;;9.30;99.90;;;;;;4868136;29;20324;-86
2022/01/02 15:06:46;;;;;;;;;;;9.30;99.90;;;;;;4852322;29;20427;-86
2022/01/02 15:09:11;;;;;;;;;;;9.30;99.90;;;;;;4867495;29;19924;-86
2022/01/02 15:11:37;;;;;;;;;;;9.30;99.90;;;;;;4865094;29;20414;-85
2022/01/02 15:14:09;;;;;;;;;;;9.30;99.90;;;;;;4869365;29;19931;-86
2022/01/02 15:16:35;;;;;;;;;;;9.30;99.90;;;;;;4866013;29;19924;-85
2022/01/02 15:19:00;;;;;;;;;;;9.30;99.90;;;;;;4868580;29;20376;-86
2022/01/02 15:21:26;;;;;;;;;;;9.30;99.90;;;;;;4865781;29;20392;-87
2022/01/02 15:23:52;;;;;;;;;;;9.20;99.90;;;;;;4868641;29;19931;-86
2022/01/02 15:26:17;;;;;;;;;;;9.30;99.90;;;;;;4866075;29;19931;-88
2022/01/02 15:28:44;;;;;;;;;;;9.20;99.90;;;;;;4867323;29;20387;-86
2022/01/02 17:39:13;;;;;;;;;;;8.90;99.90;;;;;;5522111;23;19976;-80
2022/01/02 17:42:11;;;;;;;;;;;8.80;99.90;;;;;;4867247;29;20015;-84
2022/01/02 17:45:08;;;;;;;;;;;;;;;;;;;;;
2022/01/02 17:55:47;;;;;;;;;;;8.80;99.90;;;;;;5275107;23;19928;-79
2022/01/02 17:58:12;;;;;;;;;;;8.90;99.90;;;;;;4865116;29;19924;-80
2022/01/02 18:00:38;;;;;;;;;;;8.90;99.90;;;;;;4853487;29;20427;-76
2022/01/02 18:03:03;;;;;;;;;;;8.80;99.90;;;;;;4866471;29;19971;-79
2022/01/02 18:05:29;;;;;;;;;;;8.80;99.90;;;;;;4862582;29;19957;-80
2022/01/02 18:07:54;;;;;;;;;;;8.80;99.90;;;;;;4867498;29;19924;-80
2022/01/02 18:10:21;;;;;;;;;;;8.80;99.90;;;;;;4868729;29;20317;-81
2022/01/02 18:15:13;;;;;;;;;;;8.80;99.90;;;;;;5475862;23;19974;-91
2022/01/02 18:30:11;;;;;;;12.17;3.10;;;10.40;99.90;;;;;;5100476;27;20429;-79
2022/01/02 18:32:37;;;;;;;16.30;3.03;;;8.90;99.90;;;;;;5096282;28;20035;-82
2022/01/02 18:35:05;;;;;;;14.20;2.22;;;8.80;99.90;;;;;;5098168;28;20047;-91
2022/01/02 18:37:30;;;;;;;9.57;2.20;;;8.90;99.90;;;;;;5107408;28;20032;-89
2022/01/02 18:39:56;;;;;;;;;;;8.80;99.90;;;;;;5107781;28;20089;-84
2022/01/02 18:42:23;;;;;;;9.38;1.92;;;8.70;99.90;;;;;;5105329;28;19970;-86
2022/01/02 18:44:50;;;;;;;8.93;2.22;;;8.70;99.90;;;;;;5107452;28;20048;-86
2022/01/02 18:47:16;;;;;;;11.25;2.08;;;8.80;99.90;;;;;;5107759;28;20098;-81
2022/01/02 18:49:41;;;;;;;;;;;8.70;99.90;;;;;;5103914;28;20056;-80
2022/01/02 18:57:17;;;;;;;12.38;2.83;;;8.60;99.90;;;;;;5594699;22;20107;-87
2022/01/02 18:59:55;;;;;;;;;;;8.50;99.90;;;;;;5040800;28;20045;-80
2022/01/02 19:02:23;;;;;;;10.90;2.80;;;8.50;99.90;;;;;;5038212;28;20003;-80
2022/01/02 19:04:51;;;;;;;13.02;3.25;;;8.30;99.90;;;;;;5041214;28;20098;-82
2022/01/02 19:07:17;;;;;;;10.13;3.88;;;8.50;99.90;;;;;;5042181;28;20048;-81
2022/01/02 19:09:45;;;;;;;13.57;4.32;;;8.50;99.90;;;;;;5042709;28;20045;-83
2022/01/02 19:12:11;;;;;;;11.18;4.00;;;8.50;99.90;;;;;;5034526;28;20401;-81
2022/01/02 19:14:37;;;;;;;14.38;4.65;;;8.40;99.90;;;;;;5040867;28;20045;-80
2022/01/02 19:17:03;;;;;;;;;;;8.40;99.90;;;;;;5039625;28;20055;-80
2022/01/02 19:19:38;;;;;;;12.10;3.80;;;8.40;99.90;;;;;;5041359;28;19931;-82
2022/01/02 19:22:04;;;;;;;14.98;4.07;;;8.40;99.90;;;;;;5035452;28;20045;-82
2022/01/02 19:24:31;;;;;;;18.83;3.38;;;8.40;99.90;;;;;;5057321;28;20467;-81
2022/01/02 19:26:56;;;;;;;18.00;3.78;;;8.40;99.90;;;;;;5038810;28;20048;-82
2022/01/02 19:29:22;;;;;;;;;;;8.40;99.90;;;;;;5037165;28;20401;-82
2022/01/02 19:31:48;;;;;;;20.40;3.00;;;8.40;99.90;;;;;;5026141;28;20273;-82
2022/01/02 19:34:14;;;;;;;16.88;3.60;;;8.50;99.90;;;;;;5026331;28;20045;-85
2022/01/02 19:36:40;;;;;;;13.52;4.20;;;8.60;99.90;;;;;;5027013;28;20591;-82
2022/01/02 19:39:07;;;;;;;;;;;8.60;99.90;;;;;;5025440;28;20064;-83
2022/01/02 19:41:35;;;;;;;16.35;3.22;;;8.60;99.90;;;;;;5027209;28;20018;-82
2022/01/02 19:44:03;;;;;;;19.38;4.07;;;8.70;99.90;;;;;;5044666;28;20043;-82
2022/01/02 19:46:31;;;;;;;13.75;2.88;;;8.70;99.90;;;;;;5024453;28;20045;-82
2022/01/02 19:49:00;;;;;;;17.67;3.72;;;8.70;99.90;;;;;;5043975;28;20048;-81
2022/01/02 19:51:26;;;;;;;18.75;3.25;;;8.80;99.90;;;;;;5042328;28;20042;-79
2022/01/02 19:53:52;;;;;;;;;;;8.80;99.90;;;;;;5026828;28;20041;-84
2022/01/02 19:56:20;;;;;;;15.27;4.65;;;8.90;99.90;;;;;;5023827;28;20033;-83
2022/01/02 19:58:46;;;;;;;20.38;3.63;;;8.90;99.90;;;;;;5023063;28;20103;-80
2022/01/02 20:01:11;;;;;;;;;;;9.00;99.90;;;;;;5024384;28;20428;-84
2022/01/02 20:03:37;;;;;;;19.90;3.97;;;9.00;99.90;;;;;;5026713;28;20400;-81
2022/01/02 20:06:03;;;;;;;;;;;9.00;99.90;;;;;;5024490;28;20084;-80
2022/01/02 20:08:29;;;;;;;12.25;2.63;;;9.60;99.90;;;;;;5025627;28;19925;-80
2022/01/02 20:10:54;;;;;;;;;;;9.10;99.90;;;;;;5026012;28;20041;-80
2022/01/02 20:13:30;;;;;;;18.45;3.03;;;9.10;99.90;;;;;;5025036;28;19920;-79
2022/01/02 20:15:56;;;;;;;13.30;2.40;;;9.20;99.90;;;;;;5025489;28;20131;-81
2022/01/02 20:18:22;;;;;;;;;;;9.30;99.90;;;;;;5027159;28;20572;-82
2022/01/02 20:20:47;;;;;;;10.90;2.58;;;9.50;99.90;;;;;;5022943;28;19963;-88
2022/01/02 20:23:13;;;;;;;;;;;9.40;99.90;;;;;;5023973;28;20037;-83
2022/01/02 20:25:39;;;;;;;10.38;1.90;;;9.40;99.90;;;;;;5044631;28;19920;-82
2022/01/02 20:28:11;;;;;;;7.05;1.95;;;9.40;99.90;;;;;;5029927;28;20069;-76
2022/01/02 20:30:38;;;;;;;7.70;1.98;;;9.30;99.90;;;;;;5044565;28;20394;-81
2022/01/02 20:33:04;;;;;;;9.40;2.15;;;9.30;99.90;;;;;;5023148;28;20765;-78
2022/01/02 20:35:35;;;;;;;9.00;2.90;;;9.20;99.90;;;;;;5023526;28;20149;-81
2022/01/02 20:38:02;;;;;;;;;;;9.20;99.90;;;;;;5046032;28;20094;-81
2022/01/02 20:40:28;;;;;;;9.65;2.03;;;9.60;99.90;;;;;;5023525;28;20387;-81
2022/01/02 20:42:56;;;;;;;;;;;9.10;99.90;;;;;;5024703;28;20049;-83
2022/01/02 20:45:22;;;;;;;6.85;2.05;;;9.10;99.90;;;;;;5024045;28;19931;-80
2022/01/02 20:47:49;;;;;;;;;;;9.00;99.90;;;;;;5023681;28;20049;-82
2022/01/02 20:50:17;;;;;;;8.13;2.30;;;8.90;99.90;;;;;;5021709;28;20003;-85
2022/01/02 20:52:43;;;;;;;10.02;2.45;;;8.90;99.90;;;;;;5043424;28;20130;-81
2022/01/02 20:55:11;;;;;;;9.27;2.15;;;8.90;99.90;;;;;;5021317;28;20045;-83
2022/01/02 20:57:37;;;;;;;6.85;2.05;;;9.00;99.90;;;;;;5017123;28;20449;-83
2022/01/02 21:00:11;;;;;;;7.05;2.45;;;9.50;99.90;;;;;;5023991;28;20045;-82
2022/01/02 21:26:14;;;;;;;8.98;2.33;;;7.80;99.90;;;;;;5005389;28;20157;-85
2022/01/02 21:29:16;;;;;;;;;;;8.50;99.90;;;;;;4986757;28;20070;-81
2022/01/02 21:31:42;;;;;;;7.55;1.92;;;9.80;99.90;;;;;;5000513;28;19960;-82
2022/01/02 21:34:36;;;;;;;;;;;8.40;99.90;;;;;;4985353;28;20120;-87
2022/01/02 21:59:13;;;;;;;8.70;1.20;;;7.00;99.90;;;;;;4984489;28;20106;-87
2022/01/02 22:01:46;;;;;;;;;;;7.90;99.90;;;;;;4991599;28;20058;-87
2022/01/02 22:04:19;;;;;;;3.55;0.80;;;7.80;99.90;;;;;;4963880;28;19925;-87
2022/01/02 22:06:46;;;;;;;5.45;1.45;;;7.80;99.90;;;;;;4989161;28;20761;-88
2022/01/02 22:09:12;;;;;;;7.63;1.50;;;7.80;99.90;;;;;;4977295;28;20042;-87
2022/01/02 22:11:38;;;;;;;2.75;1.20;;;7.80;99.90;;;;;;4973917;28;20053;-86
2022/01/02 22:14:04;;;;;;;;;;;7.80;99.90;;;;;;4967771;28;20046;-86
2022/01/02 22:16:32;;;;;;;8.27;1.60;;;7.90;99.90;;;;;;4970971;28;19968;-87
2022/01/02 22:18:57;;;;;;;6.43;1.17;;;7.90;99.90;;;;;;4965355;28;20051;-88
2022/01/02 22:32:50;;;;;;;7.95;2.28;;;7.90;99.90;;;;;;4968358;28;20134;-88
2022/01/02 22:43:03;;;;;;;8.23;1.90;;;6.90;99.90;;;;;;4993385;28;20830;-87
2022/01/02 22:45:28;;;;;;;;;;;7.90;99.90;;;;;;4983753;28;20061;-88
2022/01/02 22:48:00;;;;;;;4.82;1.90;;;9.30;99.90;;;;;;4986360;28;19957;-87
2022/01/02 22:50:25;;;;;;;6.55;1.92;;;8.00;99.90;;;;;;4984721;28;20049;-87
2022/01/02 23:06:43;;;;;;;13.40;1.67;;;8.10;99.90;;;;;;5004858;28;20044;-88
2022/01/02 23:12:54;;;;;;;9.43;1.42;;;8.60;99.90;;;;;;4926596;29;20400;-86
2022/01/02 23:15:20;;;;;;;7.78;1.40;;;8.00;99.90;;;;;;4914468;29;20145;-86
2022/01/02 23:17:55;;;;;;;6.30;1.48;;;8.10;99.90;;;;;;4961063;28;20128;-87
2022/01/02 23:20:23;;;;;;;5.82;1.27;;;8.10;99.90;;;;;;4987273;28;20042;-88
2022/01/02 23:25:54;;;;;;;7.40;1.40;;;8.10;99.90;;;;;;5067085;23;20054;-86
2022/01/02 23:38:30;;;;;;;6.80;1.58;;;7.50;99.90;;;;;;4984811;28;20100;-86
2022/01/02 23:48:44;;;;;;;7.45;1.83;;;8.00;99.90;;;;;;4986423;28;20065;-87
2022/01/02 23:55:23;;;;;;;10.07;2.30;;;8.50;99.90;;;;;;4945293;28;20046;-88
